sensor_id;sensor_type;location;lat;lon;timestamp;P1;durP1;ratioP1;P2;durP2;ratioP2
60885;SDS011;46736;41.654;-8.438;2023-07-20T00:02:56;0.30;;;0.30;;
60885;SDS011;46736;41.654;-8.438;2023-07-20T00:06:08;0.30;;;0.30;;
60885;SDS011;46736;41.654;-8.438;2023-07-20T00:09:07;0.20;;;0.20;;
60885;SDS011;46736;41.654;-8.438;2023-07-20T00:12:07;0.30;;;0.30;;
60885;SDS011;46736;41.654;-8.438;2023-07-20T00:15:06;0.30;;;0.30;;
60885;SDS011;46736;41.654;-8.438;2023-07-20T00:18:06;0.20;;;0.20;;
60885;SDS011;46736;41.654;-8.438;2023-07-20T00:21:07;0.30;;;0.30;;
60885;SDS011;46736;41.654;-8.438;2023-07-20T00:24:06;0.30;;;0.30;;
60885;SDS011;46736;41.654;-8.438;2023-07-20T00:27:05;0.30;;;0.30;;
60885;SDS011;46736;41.654;-8.438;2023-07-20T00:30:05;0.30;;;0.30;;
60885;SDS011;46736;41.654;-8.438;2023-07-20T00:33:11;0.30;;;0.30;;
60885;SDS011;46736;41.654;-8.438;2023-07-20T00:36:10;0.30;;;0.30;;
60885;SDS011;46736;41.654;-8.438;2023-07-20T00:39:10;0.30;;;0.30;;
60885;SDS011;46736;41.654;-8.438;2023-07-20T00:42:09;0.30;;;0.30;;
60885;SDS011;46736;41.654;-8.438;2023-07-20T00:45:08;0.30;;;0.30;;
60885;SDS011;46736;41.654;-8.438;2023-07-20T00:48:08;0.30;;;0.30;;
60885;SDS011;46736;41.654;-8.438;2023-07-20T00:51:08;0.30;;;0.30;;
60885;SDS011;46736;41.654;-8.438;2023-07-20T00:54:08;0.30;;;0.30;;
60885;SDS011;46736;41.654;-8.438;2023-07-20T00:57:08;0.30;;;0.30;;
60885;SDS011;46736;41.654;-8.438;2023-07-20T01:00:09;0.30;;;0.30;;
60885;SDS011;46736;41.654;-8.438;2023-07-20T01:03:08;0.30;;;0.30;;
60885;SDS011;46736;41.654;-8.438;2023-07-20T01:12:25;0.40;;;0.40;;
60885;SDS011;46736;41.654;-8.438;2023-07-20T01:15:26;0.35;;;0.35;;
60885;SDS011;46736;41.654;-8.438;2023-07-20T01:18:27;0.20;;;0.20;;
60885;SDS011;46736;41.654;-8.438;2023-07-20T01:25:07;0.30;;;0.30;;
60885;SDS011;46736;41.654;-8.438;2023-07-20T01:28:29;0.30;;;0.30;;
60885;SDS011;46736;41.654;-8.438;2023-07-20T01:31:42;0.30;;;0.30;;
60885;SDS011;46736;41.654;-8.438;2023-07-20T01:34:45;0.30;;;0.30;;
60885;SDS011;46736;41.654;-8.438;2023-07-20T01:37:46;0.30;;;0.30;;
60885;SDS011;46736;41.654;-8.438;2023-07-20T01:40:46;0.22;;;0.22;;
60885;SDS011;46736;41.654;-8.438;2023-07-20T01:43:46;0.30;;;0.30;;
60885;SDS011;46736;41.654;-8.438;2023-07-20T01:46:45;0.20;;;0.20;;
60885;SDS011;46736;41.654;-8.438;2023-07-20T01:49:44;0.30;;;0.30;;
60885;SDS011;46736;41.654;-8.438;2023-07-20T01:52:44;0.30;;;0.30;;
60885;SDS011;46736;41.654;-8.438;2023-07-20T01:55:43;0.30;;;0.30;;
60885;SDS011;46736;41.654;-8.438;2023-07-20T01:58:42;0.40;;;0.40;;
60885;SDS011;46736;41.654;-8.438;2023-07-20T02:01:41;0.30;;;0.30;;
60885;SDS011;46736;41.654;-8.438;2023-07-20T02:04:41;0.30;;;0.30;;
60885;SDS011;46736;41.654;-8.438;2023-07-20T02:07:44;0.40;;;0.40;;
60885;SDS011;46736;41.654;-8.438;2023-07-20T02:10:45;0.30;;;0.30;;
60885;SDS011;46736;41.654;-8.438;2023-07-20T02:13:44;0.30;;;0.30;;
60885;SDS011;46736;41.654;-8.438;2023-07-20T02:16:43;0.30;;;0.30;;
60885;SDS011;46736;41.654;-8.438;2023-07-20T02:19:43;0.28;;;0.28;;
60885;SDS011;46736;41.654;-8.438;2023-07-20T02:22:42;0.30;;;0.30;;
60885;SDS011;46736;41.654;-8.438;2023-07-20T02:25:42;0.30;;;0.30;;
60885;SDS011;46736;41.654;-8.438;2023-07-20T02:28:41;0.30;;;0.30;;
60885;SDS011;46736;41.654;-8.438;2023-07-20T02:31:41;0.30;;;0.30;;
60885;SDS011;46736;41.654;-8.438;2023-07-20T02:34:40;0.30;;;0.30;;
60885;SDS011;46736;41.654;-8.438;2023-07-20T02:37:40;0.30;;;0.30;;
60885;SDS011;46736;41.654;-8.438;2023-07-20T02:40:39;0.30;;;0.30;;
60885;SDS011;46736;41.654;-8.438;2023-07-20T02:43:39;0.30;;;0.30;;
60885;SDS011;46736;41.654;-8.438;2023-07-20T02:46:38;0.30;;;0.30;;
60885;SDS011;46736;41.654;-8.438;2023-07-20T02:49:37;0.20;;;0.20;;
60885;SDS011;46736;41.654;-8.438;2023-07-20T02:52:37;0.20;;;0.20;;
60885;SDS011;46736;41.654;-8.438;2023-07-20T02:55:36;0.20;;;0.20;;
60885;SDS011;46736;41.654;-8.438;2023-07-20T02:58:39;0.30;;;0.30;;
60885;SDS011;46736;41.654;-8.438;2023-07-20T03:01:38;0.30;;;0.30;;
60885;SDS011;46736;41.654;-8.438;2023-07-20T03:04:38;0.25;;;0.25;;
60885;SDS011;46736;41.654;-8.438;2023-07-20T03:07:39;0.30;;;0.30;;
60885;SDS011;46736;41.654;-8.438;2023-07-20T03:10:39;0.25;;;0.25;;
60885;SDS011;46736;41.654;-8.438;2023-07-20T03:13:38;0.20;;;0.20;;
60885;SDS011;46736;41.654;-8.438;2023-07-20T03:16:37;0.30;;;0.30;;
60885;SDS011;46736;41.654;-8.438;2023-07-20T03:19:38;0.30;;;0.30;;
60885;SDS011;46736;41.654;-8.438;2023-07-20T03:22:39;0.40;;;0.40;;
60885;SDS011;46736;41.654;-8.438;2023-07-20T03:25:40;0.25;;;0.25;;
60885;SDS011;46736;41.654;-8.438;2023-07-20T03:28:40;0.30;;;0.30;;
60885;SDS011;46736;41.654;-8.438;2023-07-20T03:31:40;0.30;;;0.30;;
60885;SDS011;46736;41.654;-8.438;2023-07-20T03:34:40;0.38;;;0.38;;
60885;SDS011;46736;41.654;-8.438;2023-07-20T03:37:39;0.30;;;0.30;;
60885;SDS011;46736;41.654;-8.438;2023-07-20T03:40:38;0.30;;;0.30;;
60885;SDS011;46736;41.654;-8.438;2023-07-20T03:43:37;0.30;;;0.30;;
60885;SDS011;46736;41.654;-8.438;2023-07-20T03:46:37;0.30;;;0.30;;
60885;SDS011;46736;41.654;-8.438;2023-07-20T03:49:36;0.38;;;0.38;;
60885;SDS011;46736;41.654;-8.438;2023-07-20T03:52:35;0.40;;;0.40;;
60885;SDS011;46736;41.654;-8.438;2023-07-20T03:55:34;0.20;;;0.20;;
60885;SDS011;46736;41.654;-8.438;2023-07-20T03:58:35;0.30;;;0.30;;
60885;SDS011;46736;41.654;-8.438;2023-07-20T04:01:34;0.30;;;0.30;;
60885;SDS011;46736;41.654;-8.438;2023-07-20T04:04:34;0.30;;;0.30;;
60885;SDS011;46736;41.654;-8.438;2023-07-20T04:07:33;0.25;;;0.25;;
60885;SDS011;46736;41.654;-8.438;2023-07-20T04:10:32;0.30;;;0.30;;
60885;SDS011;46736;41.654;-8.438;2023-07-20T04:13:31;0.30;;;0.30;;
60885;SDS011;46736;41.654;-8.438;2023-07-20T04:16:31;0.20;;;0.20;;
60885;SDS011;46736;41.654;-8.438;2023-07-20T04:19:30;0.30;;;0.30;;
60885;SDS011;46736;41.654;-8.438;2023-07-20T04:22:29;0.30;;;0.30;;
60885;SDS011;46736;41.654;-8.438;2023-07-20T04:25:29;0.30;;;0.30;;
60885;SDS011;46736;41.654;-8.438;2023-07-20T04:28:28;0.30;;;0.30;;
60885;SDS011;46736;41.654;-8.438;2023-07-20T04:31:27;0.30;;;0.30;;
60885;SDS011;46736;41.654;-8.438;2023-07-20T04:34:27;0.30;;;0.30;;
60885;SDS011;46736;41.654;-8.438;2023-07-20T04:37:43;0.30;;;0.30;;
60885;SDS011;46736;41.654;-8.438;2023-07-20T04:40:53;0.30;;;0.30;;
60885;SDS011;46736;41.654;-8.438;2023-07-20T04:43:52;0.40;;;0.40;;
60885;SDS011;46736;41.654;-8.438;2023-07-20T04:46:51;0.30;;;0.30;;
60885;SDS011;46736;41.654;-8.438;2023-07-20T04:49:51;0.28;;;0.28;;
60885;SDS011;46736;41.654;-8.438;2023-07-20T04:52:51;0.30;;;0.30;;
60885;SDS011;46736;41.654;-8.438;2023-07-20T04:55:50;0.20;;;0.20;;
60885;SDS011;46736;41.654;-8.438;2023-07-20T04:58:50;0.20;;;0.20;;
60885;SDS011;46736;41.654;-8.438;2023-07-20T05:01:50;0.30;;;0.30;;
60885;SDS011;46736;41.654;-8.438;2023-07-20T05:04:50;0.35;;;0.35;;
60885;SDS011;46736;41.654;-8.438;2023-07-20T05:07:49;0.20;;;0.20;;
60885;SDS011;46736;41.654;-8.438;2023-07-20T05:10:49;0.30;;;0.30;;
60885;SDS011;46736;41.654;-8.438;2023-07-20T05:13:49;0.30;;;0.30;;
60885;SDS011;46736;41.654;-8.438;2023-07-20T05:16:48;0.30;;;0.30;;
60885;SDS011;46736;41.654;-8.438;2023-07-20T05:19:49;0.20;;;0.20;;
60885;SDS011;46736;41.654;-8.438;2023-07-20T05:22:49;0.30;;;0.30;;
60885;SDS011;46736;41.654;-8.438;2023-07-20T05:25:56;0.25;;;0.25;;
60885;SDS011;46736;41.654;-8.438;2023-07-20T05:28:55;0.40;;;0.40;;
60885;SDS011;46736;41.654;-8.438;2023-07-20T05:31:56;0.30;;;0.30;;
60885;SDS011;46736;41.654;-8.438;2023-07-20T05:34:55;0.40;;;0.40;;
60885;SDS011;46736;41.654;-8.438;2023-07-20T05:37:54;0.22;;;0.22;;
60885;SDS011;46736;41.654;-8.438;2023-07-20T05:40:58;0.20;;;0.20;;
60885;SDS011;46736;41.654;-8.438;2023-07-20T05:43:58;0.20;;;0.20;;
60885;SDS011;46736;41.654;-8.438;2023-07-20T05:46:57;0.30;;;0.30;;
60885;SDS011;46736;41.654;-8.438;2023-07-20T05:49:56;0.32;;;0.32;;
60885;SDS011;46736;41.654;-8.438;2023-07-20T05:52:56;0.38;;;0.38;;
60885;SDS011;46736;41.654;-8.438;2023-07-20T05:55:55;0.30;;;0.30;;
60885;SDS011;46736;41.654;-8.438;2023-07-20T05:58:54;0.30;;;0.30;;
60885;SDS011;46736;41.654;-8.438;2023-07-20T06:01:53;0.30;;;0.30;;
60885;SDS011;46736;41.654;-8.438;2023-07-20T06:04:53;0.30;;;0.30;;
60885;SDS011;46736;41.654;-8.438;2023-07-20T06:07:58;0.30;;;0.30;;
60885;SDS011;46736;41.654;-8.438;2023-07-20T06:10:57;0.30;;;0.30;;
60885;SDS011;46736;41.654;-8.438;2023-07-20T06:13:57;0.30;;;0.30;;
60885;SDS011;46736;41.654;-8.438;2023-07-20T06:16:56;0.30;;;0.30;;
60885;SDS011;46736;41.654;-8.438;2023-07-20T06:19:56;0.30;;;0.30;;
60885;SDS011;46736;41.654;-8.438;2023-07-20T06:22:55;0.30;;;0.30;;
60885;SDS011;46736;41.654;-8.438;2023-07-20T06:25:55;0.40;;;0.40;;
60885;SDS011;46736;41.654;-8.438;2023-07-20T06:28:54;0.40;;;0.40;;
60885;SDS011;46736;41.654;-8.438;2023-07-20T06:31:53;0.40;;;0.40;;
60885;SDS011;46736;41.654;-8.438;2023-07-20T06:34:52;0.30;;;0.30;;
60885;SDS011;46736;41.654;-8.438;2023-07-20T06:37:53;0.30;;;0.30;;
60885;SDS011;46736;41.654;-8.438;2023-07-20T06:40:52;0.20;;;0.20;;
60885;SDS011;46736;41.654;-8.438;2023-07-20T06:43:51;0.32;;;0.32;;
60885;SDS011;46736;41.654;-8.438;2023-07-20T06:46:50;0.30;;;0.30;;
60885;SDS011;46736;41.654;-8.438;2023-07-20T06:49:50;0.30;;;0.30;;
60885;SDS011;46736;41.654;-8.438;2023-07-20T06:52:49;0.30;;;0.30;;
60885;SDS011;46736;41.654;-8.438;2023-07-20T06:55:48;0.30;;;0.30;;
60885;SDS011;46736;41.654;-8.438;2023-07-20T06:58:47;0.40;;;0.40;;
60885;SDS011;46736;41.654;-8.438;2023-07-20T07:01:47;0.38;;;0.38;;
60885;SDS011;46736;41.654;-8.438;2023-07-20T07:04:46;0.32;;;0.32;;
60885;SDS011;46736;41.654;-8.438;2023-07-20T07:07:45;0.30;;;0.30;;
60885;SDS011;46736;41.654;-8.438;2023-07-20T07:10:45;0.30;;;0.30;;
60885;SDS011;46736;41.654;-8.438;2023-07-20T07:13:44;0.32;;;0.32;;
60885;SDS011;46736;41.654;-8.438;2023-07-20T07:16:44;0.30;;;0.30;;
60885;SDS011;46736;41.654;-8.438;2023-07-20T07:19:43;0.40;;;0.40;;
60885;SDS011;46736;41.654;-8.438;2023-07-20T07:22:50;0.30;;;0.30;;
60885;SDS011;46736;41.654;-8.438;2023-07-20T07:25:49;0.40;;;0.40;;
60885;SDS011;46736;41.654;-8.438;2023-07-20T07:28:49;0.30;;;0.30;;
60885;SDS011;46736;41.654;-8.438;2023-07-20T07:31:49;0.30;;;0.30;;
60885;SDS011;46736;41.654;-8.438;2023-07-20T07:34:49;0.30;;;0.30;;
60885;SDS011;46736;41.654;-8.438;2023-07-20T07:37:48;0.30;;;0.30;;
60885;SDS011;46736;41.654;-8.438;2023-07-20T07:40:47;0.28;;;0.28;;
60885;SDS011;46736;41.654;-8.438;2023-07-20T07:43:46;0.30;;;0.30;;
60885;SDS011;46736;41.654;-8.438;2023-07-20T07:46:48;0.30;;;0.30;;
60885;SDS011;46736;41.654;-8.438;2023-07-20T07:49:48;0.20;;;0.20;;
60885;SDS011;46736;41.654;-8.438;2023-07-20T07:52:47;0.30;;;0.30;;
60885;SDS011;46736;41.654;-8.438;2023-07-20T07:55:48;0.30;;;0.30;;
60885;SDS011;46736;41.654;-8.438;2023-07-20T07:58:49;0.20;;;0.20;;
60885;SDS011;46736;41.654;-8.438;2023-07-20T08:01:48;0.30;;;0.30;;
60885;SDS011;46736;41.654;-8.438;2023-07-20T08:04:49;0.30;;;0.30;;
60885;SDS011;46736;41.654;-8.438;2023-07-20T08:07:48;0.20;;;0.20;;
60885;SDS011;46736;41.654;-8.438;2023-07-20T08:10:47;0.30;;;0.30;;
60885;SDS011;46736;41.654;-8.438;2023-07-20T08:13:48;0.30;;;0.30;;
60885;SDS011;46736;41.654;-8.438;2023-07-20T08:16:53;0.30;;;0.30;;
60885;SDS011;46736;41.654;-8.438;2023-07-20T08:19:52;0.30;;;0.30;;
60885;SDS011;46736;41.654;-8.438;2023-07-20T08:22:52;0.30;;;0.30;;
60885;SDS011;46736;41.654;-8.438;2023-07-20T08:25:52;0.30;;;0.30;;
60885;SDS011;46736;41.654;-8.438;2023-07-20T08:28:51;0.30;;;0.30;;
60885;SDS011;46736;41.654;-8.438;2023-07-20T08:31:50;0.30;;;0.30;;
60885;SDS011;46736;41.654;-8.438;2023-07-20T08:34:49;0.30;;;0.30;;
60885;SDS011;46736;41.654;-8.438;2023-07-20T08:37:49;0.30;;;0.30;;
60885;SDS011;46736;41.654;-8.438;2023-07-20T08:40:49;0.30;;;0.30;;
60885;SDS011;46736;41.654;-8.438;2023-07-20T08:43:49;0.30;;;0.30;;
60885;SDS011;46736;41.654;-8.438;2023-07-20T08:46:50;0.30;;;0.30;;
60885;SDS011;46736;41.654;-8.438;2023-07-20T08:49:50;0.30;;;0.30;;
60885;SDS011;46736;41.654;-8.438;2023-07-20T08:52:51;0.30;;;0.30;;
60885;SDS011;46736;41.654;-8.438;2023-07-20T08:55:51;0.30;;;0.30;;
60885;SDS011;46736;41.654;-8.438;2023-07-20T08:58:54;0.30;;;0.30;;
60885;SDS011;46736;41.654;-8.438;2023-07-20T09:01:55;0.30;;;0.30;;
60885;SDS011;46736;41.654;-8.438;2023-07-20T09:04:55;0.30;;;0.30;;
60885;SDS011;46736;41.654;-8.438;2023-07-20T09:07:55;0.30;;;0.30;;
60885;SDS011;46736;41.654;-8.438;2023-07-20T09:10:54;0.30;;;0.30;;
60885;SDS011;46736;41.654;-8.438;2023-07-20T09:17:13;0.30;;;0.30;;
60885;SDS011;46736;41.654;-8.438;2023-07-20T09:20:23;0.30;;;0.30;;
60885;SDS011;46736;41.654;-8.438;2023-07-20T09:23:29;0.30;;;0.30;;
60885;SDS011;46736;41.654;-8.438;2023-07-20T09:26:32;0.30;;;0.30;;
60885;SDS011;46736;41.654;-8.438;2023-07-20T09:32:53;0.30;;;0.30;;
60885;SDS011;46736;41.654;-8.438;2023-07-20T09:35:53;0.30;;;0.30;;
60885;SDS011;46736;41.654;-8.438;2023-07-20T09:38:52;0.30;;;0.30;;
60885;SDS011;46736;41.654;-8.438;2023-07-20T09:41:52;0.30;;;0.30;;
60885;SDS011;46736;41.654;-8.438;2023-07-20T09:44:53;0.20;;;0.20;;
60885;SDS011;46736;41.654;-8.438;2023-07-20T09:48:03;0.30;;;0.30;;
60885;SDS011;46736;41.654;-8.438;2023-07-20T09:51:02;0.28;;;0.28;;
60885;SDS011;46736;41.654;-8.438;2023-07-20T09:54:02;0.30;;;0.30;;
60885;SDS011;46736;41.654;-8.438;2023-07-20T09:57:03;0.30;;;0.30;;
60885;SDS011;46736;41.654;-8.438;2023-07-20T10:00:04;0.20;;;0.20;;
60885;SDS011;46736;41.654;-8.438;2023-07-20T10:03:07;0.30;;;0.30;;
60885;SDS011;46736;41.654;-8.438;2023-07-20T10:06:10;0.30;;;0.30;;
60885;SDS011;46736;41.654;-8.438;2023-07-20T10:09:12;0.30;;;0.30;;
60885;SDS011;46736;41.654;-8.438;2023-07-20T10:12:17;0.30;;;0.30;;
60885;SDS011;46736;41.654;-8.438;2023-07-20T10:15:26;0.30;;;0.30;;
60885;SDS011;46736;41.654;-8.438;2023-07-20T10:21:51;0.30;;;0.30;;
60885;SDS011;46736;41.654;-8.438;2023-07-20T10:24:54;0.30;;;0.30;;
60885;SDS011;46736;41.654;-8.438;2023-07-20T10:27:58;0.20;;;0.20;;
60885;SDS011;46736;41.654;-8.438;2023-07-20T10:30:58;0.30;;;0.30;;
60885;SDS011;46736;41.654;-8.438;2023-07-20T10:33:57;0.30;;;0.30;;
60885;SDS011;46736;41.654;-8.438;2023-07-20T10:36:57;0.30;;;0.30;;
60885;SDS011;46736;41.654;-8.438;2023-07-20T10:43:19;0.20;;;0.20;;
60885;SDS011;46736;41.654;-8.438;2023-07-20T10:53:18;0.20;;;0.20;;
60885;SDS011;46736;41.654;-8.438;2023-07-20T10:56:19;0.20;;;0.20;;
60885;SDS011;46736;41.654;-8.438;2023-07-20T11:02:24;0.20;;;0.20;;
60885;SDS011;46736;41.654;-8.438;2023-07-20T11:05:35;0.20;;;0.20;;
60885;SDS011;46736;41.654;-8.438;2023-07-20T11:08:38;0.20;;;0.20;;
60885;SDS011;46736;41.654;-8.438;2023-07-20T11:11:38;0.20;;;0.20;;
60885;SDS011;46736;41.654;-8.438;2023-07-20T11:14:41;0.20;;;0.20;;
60885;SDS011;46736;41.654;-8.438;2023-07-20T11:17:48;0.20;;;0.20;;
60885;SDS011;46736;41.654;-8.438;2023-07-20T11:20:50;0.20;;;0.20;;
60885;SDS011;46736;41.654;-8.438;2023-07-20T11:23:54;0.20;;;0.20;;
60885;SDS011;46736;41.654;-8.438;2023-07-20T11:26:58;0.20;;;0.20;;
60885;SDS011;46736;41.654;-8.438;2023-07-20T11:29:59;0.20;;;0.20;;
60885;SDS011;46736;41.654;-8.438;2023-07-20T11:32:58;0.20;;;0.20;;
60885;SDS011;46736;41.654;-8.438;2023-07-20T11:35:58;0.20;;;0.20;;
60885;SDS011;46736;41.654;-8.438;2023-07-20T11:39:04;0.10;;;0.10;;
60885;SDS011;46736;41.654;-8.438;2023-07-20T11:42:04;0.10;;;0.10;;
60885;SDS011;46736;41.654;-8.438;2023-07-20T11:45:03;0.10;;;0.10;;
60885;SDS011;46736;41.654;-8.438;2023-07-20T11:48:05;0.20;;;0.20;;
60885;SDS011;46736;41.654;-8.438;2023-07-20T11:51:04;0.10;;;0.10;;
60885;SDS011;46736;41.654;-8.438;2023-07-20T11:54:08;0.10;;;0.10;;
60885;SDS011;46736;41.654;-8.438;2023-07-20T12:27:50;0.10;;;0.10;;
60885;SDS011;46736;41.654;-8.438;2023-07-20T12:29:54;0.10;;;0.10;;
60885;SDS011;46736;41.654;-8.438;2023-07-20T12:31:55;0.17;;;0.17;;
60885;SDS011;46736;41.654;-8.438;2023-07-20T12:33:56;0.10;;;0.10;;
60885;SDS011;46736;41.654;-8.438;2023-07-20T12:35:57;0.20;;;0.20;;
60885;SDS011;46736;41.654;-8.438;2023-07-20T12:37:59;0.20;;;0.20;;
60885;SDS011;46736;41.654;-8.438;2023-07-20T12:39:59;0.20;;;0.20;;
60885;SDS011;46736;41.654;-8.438;2023-07-20T12:42:00;0.10;;;0.10;;
60885;SDS011;46736;41.654;-8.438;2023-07-20T12:44:00;0.20;;;0.20;;
60885;SDS011;46736;41.654;-8.438;2023-07-20T12:46:01;0.20;;;0.20;;
60885;SDS011;46736;41.654;-8.438;2023-07-20T12:48:01;0.10;;;0.10;;
60885;SDS011;46736;41.654;-8.438;2023-07-20T12:50:02;0.10;;;0.10;;
60885;SDS011;46736;41.654;-8.438;2023-07-20T12:52:06;0.20;;;0.20;;
60885;SDS011;46736;41.654;-8.438;2023-07-20T12:54:07;0.10;;;0.10;;
60885;SDS011;46736;41.654;-8.438;2023-07-20T12:56:08;0.10;;;0.10;;
60885;SDS011;46736;41.654;-8.438;2023-07-20T12:58:10;0.10;;;0.10;;
60885;SDS011;46736;41.654;-8.438;2023-07-20T13:00:11;0.20;;;0.20;;
60885;SDS011;46736;41.654;-8.438;2023-07-20T13:02:11;0.17;;;0.17;;
60885;SDS011;46736;41.654;-8.438;2023-07-20T13:04:12;0.20;;;0.20;;
60885;SDS011;46736;41.654;-8.438;2023-07-20T13:06:14;0.10;;;0.10;;
60885;SDS011;46736;41.654;-8.438;2023-07-20T13:08:14;0.20;;;0.20;;
60885;SDS011;46736;41.654;-8.438;2023-07-20T13:10:15;0.10;;;0.10;;
60885;SDS011;46736;41.654;-8.438;2023-07-20T13:12:16;0.10;;;0.10;;
60885;SDS011;46736;41.654;-8.438;2023-07-20T13:14:16;0.20;;;0.20;;
60885;SDS011;46736;41.654;-8.438;2023-07-20T13:16:17;0.20;;;0.20;;
60885;SDS011;46736;41.654;-8.438;2023-07-20T13:18:17;0.20;;;0.20;;
60885;SDS011;46736;41.654;-8.438;2023-07-20T13:20:18;0.20;;;0.20;;
60885;SDS011;46736;41.654;-8.438;2023-07-20T13:22:19;0.20;;;0.20;;
60885;SDS011;46736;41.654;-8.438;2023-07-20T13:24:19;0.10;;;0.10;;
60885;SDS011;46736;41.654;-8.438;2023-07-20T13:26:20;0.20;;;0.20;;
60885;SDS011;46736;41.654;-8.438;2023-07-20T13:28:21;0.20;;;0.20;;
60885;SDS011;46736;41.654;-8.438;2023-07-20T13:30:22;0.20;;;0.20;;
60885;SDS011;46736;41.654;-8.438;2023-07-20T13:32:23;0.10;;;0.10;;
60885;SDS011;46736;41.654;-8.438;2023-07-20T13:34:24;0.20;;;0.20;;
60885;SDS011;46736;41.654;-8.438;2023-07-20T13:36:25;0.20;;;0.20;;
60885;SDS011;46736;41.654;-8.438;2023-07-20T13:38:25;0.10;;;0.10;;
60885;SDS011;46736;41.654;-8.438;2023-07-20T13:40:26;0.10;;;0.10;;
60885;SDS011;46736;41.654;-8.438;2023-07-20T13:42:26;0.20;;;0.20;;
60885;SDS011;46736;41.654;-8.438;2023-07-20T13:44:27;0.10;;;0.10;;
60885;SDS011;46736;41.654;-8.438;2023-07-20T13:46:27;0.20;;;0.20;;
60885;SDS011;46736;41.654;-8.438;2023-07-20T13:48:28;0.20;;;0.20;;
60885;SDS011;46736;41.654;-8.438;2023-07-20T13:52:39;0.20;;;0.20;;
60885;SDS011;46736;41.654;-8.438;2023-07-20T13:54:42;0.20;;;0.20;;
60885;SDS011;46736;41.654;-8.438;2023-07-20T13:56:43;0.10;;;0.10;;
60885;SDS011;46736;41.654;-8.438;2023-07-20T14:06:33;0.20;;;0.20;;
60885;SDS011;46736;41.654;-8.438;2023-07-20T14:08:35;0.10;;;0.10;;
60885;SDS011;46736;41.654;-8.438;2023-07-20T14:15:23;0.10;;;0.10;;
60885;SDS011;46736;41.654;-8.438;2023-07-20T14:17:24;0.10;;;0.10;;
60885;SDS011;46736;41.654;-8.438;2023-07-20T14:19:25;0.10;;;0.10;;
60885;SDS011;46736;41.654;-8.438;2023-07-20T14:21:29;0.15;;;0.15;;
60885;SDS011;46736;41.654;-8.438;2023-07-20T14:23:32;0.20;;;0.20;;
60885;SDS011;46736;41.654;-8.438;2023-07-20T14:25:33;0.20;;;0.20;;
60885;SDS011;46736;41.654;-8.438;2023-07-20T14:27:34;0.10;;;0.10;;
60885;SDS011;46736;41.654;-8.438;2023-07-20T14:32:08;0.20;;;0.20;;
60885;SDS011;46736;41.654;-8.438;2023-07-20T14:34:09;0.20;;;0.20;;
60885;SDS011;46736;41.654;-8.438;2023-07-20T14:38:16;0.20;;;0.20;;
60885;SDS011;46736;41.654;-8.438;2023-07-20T14:40:48;0.20;;;0.20;;
60885;SDS011;46736;41.654;-8.438;2023-07-20T14:42:55;0.20;;;0.20;;
60885;SDS011;46736;41.654;-8.438;2023-07-20T14:44:57;0.20;;;0.20;;
60885;SDS011;46736;41.654;-8.438;2023-07-20T14:47:00;0.17;;;0.17;;
60885;SDS011;46736;41.654;-8.438;2023-07-20T14:49:01;0.20;;;0.20;;
60885;SDS011;46736;41.654;-8.438;2023-07-20T14:51:03;0.20;;;0.20;;
60885;SDS011;46736;41.654;-8.438;2023-07-20T14:53:03;0.20;;;0.20;;
60885;SDS011;46736;41.654;-8.438;2023-07-20T14:55:06;0.20;;;0.20;;
60885;SDS011;46736;41.654;-8.438;2023-07-20T15:01:54;0.20;;;0.20;;
60885;SDS011;46736;41.654;-8.438;2023-07-20T15:03:55;0.10;;;0.10;;
60885;SDS011;46736;41.654;-8.438;2023-07-20T15:06:15;0.20;;;0.20;;
60885;SDS011;46736;41.654;-8.438;2023-07-20T15:08:16;0.20;;;0.20;;
60885;SDS011;46736;41.654;-8.438;2023-07-20T15:10:16;0.10;;;0.10;;
60885;SDS011;46736;41.654;-8.438;2023-07-20T15:12:17;0.10;;;0.10;;
60885;SDS011;46736;41.654;-8.438;2023-07-20T15:14:24;0.10;;;0.10;;
60885;SDS011;46736;41.654;-8.438;2023-07-20T15:16:38;0.10;;;0.10;;
60885;SDS011;46736;41.654;-8.438;2023-07-20T15:18:40;0.10;;;0.10;;
60885;SDS011;46736;41.654;-8.438;2023-07-20T15:20:40;0.20;;;0.20;;
60885;SDS011;46736;41.654;-8.438;2023-07-20T15:27:29;0.20;;;0.20;;
60885;SDS011;46736;41.654;-8.438;2023-07-20T15:29:30;0.10;;;0.10;;
60885;SDS011;46736;41.654;-8.438;2023-07-20T15:31:30;0.20;;;0.20;;
60885;SDS011;46736;41.654;-8.438;2023-07-20T15:33:32;0.10;;;0.10;;
60885;SDS011;46736;41.654;-8.438;2023-07-20T15:35:34;0.10;;;0.10;;
60885;SDS011;46736;41.654;-8.438;2023-07-20T15:37:35;0.15;;;0.15;;
60885;SDS011;46736;41.654;-8.438;2023-07-20T15:39:37;0.20;;;0.20;;
60885;SDS011;46736;41.654;-8.438;2023-07-20T15:41:38;0.20;;;0.20;;
60885;SDS011;46736;41.654;-8.438;2023-07-20T15:43:38;0.10;;;0.10;;
60885;SDS011;46736;41.654;-8.438;2023-07-20T15:45:39;0.10;;;0.10;;
60885;SDS011;46736;41.654;-8.438;2023-07-20T15:47:40;0.10;;;0.10;;
60885;SDS011;46736;41.654;-8.438;2023-07-20T15:49:43;0.20;;;0.20;;
60885;SDS011;46736;41.654;-8.438;2023-07-20T15:51:44;0.20;;;0.20;;
60885;SDS011;46736;41.654;-8.438;2023-07-20T15:53:47;0.10;;;0.10;;
60885;SDS011;46736;41.654;-8.438;2023-07-20T15:55:52;0.20;;;0.20;;
60885;SDS011;46736;41.654;-8.438;2023-07-20T15:57:54;0.20;;;0.20;;
60885;SDS011;46736;41.654;-8.438;2023-07-20T15:59:54;0.20;;;0.20;;
60885;SDS011;46736;41.654;-8.438;2023-07-20T16:01:57;0.20;;;0.20;;
60885;SDS011;46736;41.654;-8.438;2023-07-20T16:04:00;0.20;;;0.20;;
60885;SDS011;46736;41.654;-8.438;2023-07-20T16:06:00;0.20;;;0.20;;
60885;SDS011;46736;41.654;-8.438;2023-07-20T16:08:04;0.20;;;0.20;;
60885;SDS011;46736;41.654;-8.438;2023-07-20T16:10:05;0.20;;;0.20;;
60885;SDS011;46736;41.654;-8.438;2023-07-20T16:12:10;0.20;;;0.20;;
60885;SDS011;46736;41.654;-8.438;2023-07-20T16:14:16;0.20;;;0.20;;
60885;SDS011;46736;41.654;-8.438;2023-07-20T16:16:39;0.20;;;0.20;;
60885;SDS011;46736;41.654;-8.438;2023-07-20T16:18:40;0.20;;;0.20;;
60885;SDS011;46736;41.654;-8.438;2023-07-20T16:20:41;0.20;;;0.20;;
60885;SDS011;46736;41.654;-8.438;2023-07-20T16:22:42;0.20;;;0.20;;
60885;SDS011;46736;41.654;-8.438;2023-07-20T16:24:42;0.20;;;0.20;;
60885;SDS011;46736;41.654;-8.438;2023-07-20T16:26:43;0.20;;;0.20;;
60885;SDS011;46736;41.654;-8.438;2023-07-20T16:28:44;0.20;;;0.20;;
60885;SDS011;46736;41.654;-8.438;2023-07-20T16:30:45;0.20;;;0.20;;
60885;SDS011;46736;41.654;-8.438;2023-07-20T16:32:46;0.20;;;0.20;;
60885;SDS011;46736;41.654;-8.438;2023-07-20T16:34:47;0.20;;;0.20;;
60885;SDS011;46736;41.654;-8.438;2023-07-20T16:36:47;0.20;;;0.20;;
60885;SDS011;46736;41.654;-8.438;2023-07-20T16:38:48;0.20;;;0.20;;
60885;SDS011;46736;41.654;-8.438;2023-07-20T16:40:49;0.20;;;0.20;;
60885;SDS011;46736;41.654;-8.438;2023-07-20T16:42:49;0.20;;;0.20;;
60885;SDS011;46736;41.654;-8.438;2023-07-20T16:44:50;0.20;;;0.20;;
60885;SDS011;46736;41.654;-8.438;2023-07-20T16:46:51;0.20;;;0.20;;
60885;SDS011;46736;41.654;-8.438;2023-07-20T16:48:51;0.20;;;0.20;;
60885;SDS011;46736;41.654;-8.438;2023-07-20T16:50:52;0.20;;;0.20;;
60885;SDS011;46736;41.654;-8.438;2023-07-20T16:52:53;0.10;;;0.10;;
60885;SDS011;46736;41.654;-8.438;2023-07-20T16:54:54;0.20;;;0.20;;
60885;SDS011;46736;41.654;-8.438;2023-07-20T16:56:55;0.20;;;0.20;;
60885;SDS011;46736;41.654;-8.438;2023-07-20T16:58:55;0.20;;;0.20;;
60885;SDS011;46736;41.654;-8.438;2023-07-20T17:01:00;0.10;;;0.10;;
60885;SDS011;46736;41.654;-8.438;2023-07-20T17:03:04;0.20;;;0.20;;
60885;SDS011;46736;41.654;-8.438;2023-07-20T17:05:05;0.20;;;0.20;;
60885;SDS011;46736;41.654;-8.438;2023-07-20T17:07:09;0.10;;;0.10;;
60885;SDS011;46736;41.654;-8.438;2023-07-20T17:09:10;0.20;;;0.20;;
60885;SDS011;46736;41.654;-8.438;2023-07-20T17:11:10;0.20;;;0.20;;
60885;SDS011;46736;41.654;-8.438;2023-07-20T17:13:11;0.20;;;0.20;;
60885;SDS011;46736;41.654;-8.438;2023-07-20T17:15:14;0.20;;;0.20;;
60885;SDS011;46736;41.654;-8.438;2023-07-20T17:17:15;0.20;;;0.20;;
60885;SDS011;46736;41.654;-8.438;2023-07-20T17:19:15;0.20;;;0.20;;